Pagrindinis puslapis
METAR-TAF:

METAR-TAF

Oro uostai :

Batajnica, Serbija

platuma: 44-56-07N, ilguma: 020-15-27E, Aukštis: 86 m

Dabartinis oras

Ataskaita buvo paskelbta 16 minutes, ne 16:30 UTC
Vėjas 10 kt iš Rytų/Pietryčių
Temperatūra 12°C
Drėgmė 62%
Slėgis 1000 hPa
Matomumas 10 km arba daugiau
nėra debesų žemiau 1500 m ir nėra kamuolinių lietaus debesų

METAR: LYBT 231630Z 12010KT CAVOK 12/05 Q1000 NOSIG

Laikas: 17:46 (16:46 UTC)

Prognozė

Ataskaita buvo paskelbta 5 valandos ir 46 minutes, ne 11:00 UTC
Prognozė galioja nuo 23 metu 12 UTC su 24 metu 12 UTC
Vėjas 16 kt iš Rytų/Pietryčių
Matomumas 10 km arba daugiau
nėra debesų žemiau 1500 m ir nėra kamuolinių lietaus debesų
Laikinai
nuo 23 metu 12 UTC su 23 metu 17 UTC
Vėjas 16 kt iš Rytų/Pietryčių su gūsio iki 26 kt
Laikinai
nuo 23 metu 17 UTC su 23 metu 19 UTC
lietus
Tapsmas
nuo 23 metu 20 UTC su 23 metu 22 UTC
Vėjas 10 kt iš Pietų

TAF: LYBT 231100Z 2312/2412 11016KT CAVOK TX15/2412Z TN08/2406Z TEMPO 2312/2317 12016G26KT TEMPO 2317/2319 RA BECMG 2320/2322 18010KT

Orai ataskaitas ir orų prognozės (METAR, TAF).

turimą stotys yra geltonos ir raudonos taškus žemėlapyje.

Perkelti pele per norėdami pamatyti stoties vardą.

Tada spustelėkite, norėdami matyti oro stebėjimo ir prognozės.

Norėdami pakeisti žemėlapį: spustelėkite ant žalios mygtukų su juodo kryžiaus žemyn,; žalią mygtuką su brūkšneliu, jei norite nutolinti; arba žalių rodyklių gretimoms žemėlapius.


METAR-TAF: